createdAt,value
2016-04-01T00:00:25.173Z,23.03
2016-04-01T00:01:25.175Z,23.07
2016-04-01T00:02:25.194Z,23.04
2016-04-01T00:03:25.275Z,23.06
2016-04-01T00:04:25.214Z,23.01
2016-04-01T00:05:25.217Z,23.03
2016-04-01T00:06:25.219Z,23.04
2016-04-01T00:07:25.222Z,23.06
2016-04-01T00:08:25.241Z,23.07
2016-04-01T00:09:25.244Z,23.04
2016-04-01T00:10:25.246Z,23.07
2016-04-01T00:11:25.249Z,23.06
2016-04-01T00:12:25.267Z,23.09
2016-04-01T00:13:25.270Z,23.03
2016-04-01T00:14:25.272Z,23.06
2016-04-01T00:15:25.307Z,23.06
2016-04-01T00:16:25.293Z,23.03
2016-04-01T00:17:25.313Z,23.04
2016-04-01T00:18:25.362Z,22.99
2016-04-01T00:19:25.317Z,23.03
2016-04-01T00:20:25.321Z,23.04
2016-04-01T00:21:25.338Z,22.99
2016-04-01T00:22:25.356Z,22.89
2016-04-01T00:23:25.344Z,22.97
2016-04-01T00:24:25.346Z,23.01
2016-04-01T00:25:25.381Z,22.96
2016-04-01T00:26:25.384Z,22.94
2016-04-01T00:27:25.386Z,23
2016-04-01T00:28:25.389Z,22.92
2016-04-01T00:29:25.406Z,22.99
2016-04-01T00:30:25.394Z,23.03
2016-04-01T00:31:25.397Z,22.92
2016-04-01T00:32:25.414Z,22.94
2016-04-01T00:33:25.340Z,22.91
2016-04-01T00:34:25.436Z,22.91
2016-04-01T00:35:25.422Z,22.96
2016-04-01T00:36:25.442Z,22.91
2016-04-01T00:37:25.459Z,22.94
2016-04-01T00:38:25.461Z,22.91
2016-04-01T00:39:25.481Z,22.94
2016-04-01T00:40:25.467Z,22.96
2016-04-01T00:41:25.502Z,23.01
2016-04-01T00:42:25.489Z,22.99
2016-04-01T00:43:25.491Z,22.96
2016-04-01T00:44:25.494Z,23.01
2016-04-01T00:45:25.496Z,22.91
2016-04-01T00:46:25.515Z,22.86
2016-04-01T00:47:25.518Z,22.92
2016-04-01T00:48:25.613Z,22.88
2016-04-01T00:49:25.523Z,22.89
2016-04-01T00:50:25.823Z,22.89
2016-04-01T00:51:25.560Z,22.94
2016-04-01T00:52:25.563Z,22.91
2016-04-01T00:53:25.581Z,22.88
2016-04-01T00:54:25.583Z,22.92
2016-04-01T00:55:25.587Z,22.86
2016-04-01T00:56:25.590Z,22.94
2016-04-01T00:57:25.592Z,22.92
2016-04-01T00:58:25.595Z,22.89
2016-04-01T00:59:25.612Z,22.92
2016-04-01T01:00:25.600Z,22.86
2016-04-01T01:01:25.618Z,22.92
2016-04-01T01:02:25.637Z,22.96
2016-04-01T01:03:25.701Z,22.88
2016-04-01T01:04:25.642Z,22.89
2016-04-01T01:05:25.645Z,22.92
2016-04-01T01:06:25.678Z,22.94
2016-04-01T01:07:25.665Z,22.94
2016-04-01T01:08:25.683Z,22.92
2016-04-01T01:09:25.686Z,22.88
2016-04-01T01:10:25.689Z,22.81
2016-04-01T01:11:25.692Z,22.84
2016-04-01T01:12:25.710Z,22.92
2016-04-01T01:13:25.713Z,22.85
2016-04-01T01:14:25.716Z,22.78
2016-04-01T01:15:25.718Z,22.85
2016-04-01T01:16:25.721Z,22.84
2016-04-01T01:17:25.739Z,22.86
2016-04-01T01:18:25.773Z,22.89
2016-04-01T01:19:25.744Z,22.86
2016-04-01T01:20:25.747Z,22.85
2016-04-01T01:21:25.765Z,22.82
2016-04-01T01:22:25.768Z,22.82
2016-04-01T01:23:25.802Z,22.79
2016-04-01T01:24:25.789Z,22.75
2016-04-01T01:25:25.823Z,22.82
2016-04-01T01:26:25.795Z,22.81
2016-04-01T01:27:25.812Z,22.86
2016-04-01T01:28:25.815Z,22.86
2016-04-01T01:29:25.818Z,22.85
2016-04-01T01:30:25.837Z,22.85
2016-04-01T01:31:25.854Z,22.78
2016-04-01T01:32:25.857Z,22.81
2016-04-01T01:33:26.017Z,22.82
2016-04-01T01:34:25.862Z,22.82
2016-04-01T01:35:25.865Z,22.88
2016-04-01T01:36:25.883Z,22.81
2016-04-01T01:37:25.886Z,22.82
2016-04-01T01:38:25.920Z,22.73
2016-04-01T01:39:25.908Z,22.84
2016-04-01T01:40:25.910Z,22.81
2016-04-01T01:41:25.913Z,22.75
2016-04-01T01:42:25.916Z,22.84
2016-04-01T01:43:25.933Z,22.75
2016-04-01T01:44:25.936Z,22.69
2016-04-01T01:45:25.938Z,22.76
2016-04-01T01:46:25.974Z,22.73
2016-04-01T01:47:25.976Z,22.73
2016-04-01T01:48:26.057Z,22.71
2016-04-01T01:49:25.997Z,22.71
2016-04-01T01:50:25.999Z,22.81
2016-04-01T01:51:25.987Z,22.81
2016-04-01T01:52:25.990Z,22.66
2016-04-01T01:53:25.992Z,22.75
2016-04-01T01:54:26.010Z,22.79
2016-04-01T01:55:26.013Z,22.66
2016-04-01T01:56:26.016Z,22.82
2016-04-01T01:57:26.034Z,22.67
2016-04-01T01:58:26.037Z,22.7
2016-04-01T01:59:26.055Z,22.79
2016-04-01T02:00:26.057Z,22.82
2016-04-01T02:01:26.060Z,22.81
2016-04-01T02:02:26.062Z,22.81
2016-04-01T02:03:26.237Z,22.69
2016-04-01T02:04:25.334Z,22.71
2016-04-01T02:05:26.086Z,22.75
2016-04-01T02:06:26.089Z,22.67
2016-04-01T02:07:25.951Z,22.75
2016-04-01T02:08:26.100Z,22.67
2016-04-01T02:09:26.118Z,22.69
2016-04-01T02:10:26.121Z,22.67
2016-04-01T02:11:26.139Z,22.67
2016-04-01T02:12:26.142Z,22.69
2016-04-01T02:13:26.144Z,22.7
2016-04-01T02:14:26.163Z,22.67
2016-04-01T02:15:26.180Z,22.73
2016-04-01T02:16:26.168Z,22.71
2016-04-01T02:17:26.171Z,22.67
2016-04-01T02:18:26.158Z,22.78
2016-04-01T02:19:26.177Z,22.69
2016-04-01T02:20:26.194Z,22.75
2016-04-01T02:21:26.196Z,22.67
2016-04-01T02:22:26.215Z,22.76
2016-04-01T02:23:26.218Z,22.66
2016-04-01T02:24:26.237Z,22.69
2016-04-01T02:25:26.239Z,22.69
2016-04-01T02:26:26.242Z,22.63
2016-04-01T02:27:26.245Z,22.71
2016-04-01T02:28:26.248Z,22.67
2016-04-01T02:29:26.266Z,22.73
2016-04-01T02:30:26.268Z,22.75
2016-04-01T02:31:26.318Z,22.71
2016-04-01T02:32:26.289Z,22.67
2016-04-01T02:33:26.151Z,22.64
2016-04-01T02:34:26.294Z,22.6
2016-04-01T02:35:26.313Z,22.67
2016-04-01T02:36:26.316Z,22.7
2016-04-01T02:37:26.319Z,22.67
2016-04-01T02:38:26.322Z,22.66
2016-04-01T02:39:26.339Z,22.61
2016-04-01T02:40:26.342Z,22.66
2016-04-01T02:41:26.344Z,22.69
2016-04-01T02:42:26.363Z,22.7
2016-04-01T02:43:26.365Z,22.7
2016-04-01T02:44:26.368Z,22.7
2016-04-01T02:45:26.371Z,22.69
2016-04-01T02:46:26.373Z,22.71
2016-04-01T02:47:26.391Z,22.69
2016-04-01T02:48:26.535Z,22.66
2016-04-01T02:49:26.412Z,22.59
2016-04-01T02:50:26.415Z,22.63
2016-04-01T02:51:26.402Z,22.6
2016-04-01T02:52:26.437Z,22.71
2016-04-01T02:53:26.440Z,22.55
2016-04-01T02:54:26.443Z,22.57
2016-04-01T02:55:26.445Z,22.54
2016-04-01T02:56:26.448Z,22.55
2016-04-01T02:57:26.466Z,22.6
2016-04-01T02:58:26.468Z,22.64
2016-04-01T02:59:26.487Z,22.6
2016-04-01T03:00:26.490Z,22.57
2016-04-01T03:01:26.492Z,22.6
2016-04-01T03:02:26.526Z,22.59
2016-04-01T03:03:26.639Z,22.59
2016-04-01T03:04:26.500Z,22.64
2016-04-01T03:05:26.534Z,22.64
2016-04-01T03:06:26.521Z,22.61
2016-04-01T03:07:26.540Z,22.63
2016-04-01T03:08:26.542Z,22.59
2016-04-01T03:09:26.544Z,22.57
2016-04-01T03:10:26.564Z,22.6
2016-04-01T03:11:26.566Z,22.6
2016-04-01T03:12:26.569Z,22.59
2016-04-01T03:13:26.587Z,22.6
2016-04-01T03:14:26.589Z,22.63
2016-04-01T03:15:26.592Z,22.59
2016-04-01T03:16:26.594Z,22.63
2016-04-01T03:17:26.597Z,22.59
2016-04-01T03:18:26.646Z,22.6
2016-04-01T03:19:26.618Z,22.54
2016-04-01T03:20:26.637Z,22.52
2016-04-01T03:21:26.640Z,22.54
2016-04-01T03:22:26.643Z,22.6
2016-04-01T03:23:26.660Z,22.57
2016-04-01T03:24:26.663Z,22.54
2016-04-01T03:25:26.666Z,22.64
2016-04-01T03:26:26.668Z,22.57
2016-04-01T03:27:26.671Z,22.57
2016-04-01T03:28:26.690Z,22.64
2016-04-01T03:29:26.740Z,22.54
2016-04-01T03:30:26.695Z,22.55
2016-04-01T03:31:26.698Z,22.57
2016-04-01T03:32:26.717Z,22.55
2016-04-01T03:33:26.782Z,22.55
2016-04-01T03:34:26.736Z,22.52
2016-04-01T03:35:26.786Z,22.52
2016-04-01T03:36:26.758Z,22.57
2016-04-01T03:37:26.761Z,22.54
2016-04-01T03:38:26.764Z,22.6
2016-04-01T03:39:26.766Z,22.55
2016-04-01T03:40:26.769Z,22.51
2016-04-01T03:41:26.787Z,22.52
2016-04-01T03:42:26.789Z,22.59
2016-04-01T03:43:26.792Z,22.54
2016-04-01T03:44:26.795Z,22.54
2016-04-01T03:45:26.798Z,22.51
2016-04-01T03:46:26.800Z,22.54
2016-04-01T03:47:26.819Z,22.52
2016-04-01T03:48:26.744Z,22.57
2016-04-01T03:49:26.840Z,22.51
2016-04-01T03:50:26.843Z,22.51
2016-04-01T03:51:26.861Z,22.52
2016-04-01T03:52:26.863Z,22.51
2016-04-01T03:53:26.866Z,22.51
2016-04-01T03:54:26.869Z,22.52
2016-04-01T03:55:26.888Z,22.51
2016-04-01T03:56:26.890Z,22.52
2016-04-01T03:57:26.892Z,22.51
2016-04-01T03:58:26.911Z,22.45
2016-04-01T03:59:26.914Z,22.48
2016-04-01T04:00:26.916Z,22.54
2016-04-01T04:01:26.934Z,22.55
2016-04-01T04:02:26.953Z,22.48
2016-04-01T04:03:26.987Z,22.57
2016-04-01T04:04:26.943Z,22.44
2016-04-01T04:05:26.945Z,22.51
2016-04-01T04:06:26.948Z,22.54
2016-04-01T04:07:26.967Z,22.54
2016-04-01T04:08:26.969Z,22.46
2016-04-01T04:09:26.972Z,22.6
2016-04-01T04:10:26.990Z,22.45
2016-04-01T04:11:26.992Z,22.45
2016-04-01T04:12:26.870Z,22.48
2016-04-01T04:13:27.014Z,22.42
2016-04-01T04:14:27.016Z,22.42
2016-04-01T04:15:27.019Z,22.48
2016-04-01T04:16:27.022Z,22.46
2016-04-01T04:17:27.041Z,22.46
2016-04-01T04:18:27.105Z,22.48
2016-04-01T04:19:27.046Z,22.49
2016-04-01T04:20:27.064Z,22.42
2016-04-01T04:21:27.066Z,22.41
2016-04-01T04:22:27.069Z,22.46
2016-04-01T04:23:27.088Z,22.42
2016-04-01T04:24:27.091Z,22.46
2016-04-01T04:25:27.109Z,22.44
2016-04-01T04:26:27.096Z,22.42
2016-04-01T04:27:27.099Z,22.39
2016-04-01T04:28:27.133Z,22.45
2016-04-01T04:29:27.120Z,22.46
2016-04-01T04:30:27.138Z,22.39
2016-04-01T04:31:27.141Z,22.46
2016-04-01T04:32:27.143Z,22.42
2016-04-01T04:33:27.177Z,22.38
2016-04-01T04:34:27.164Z,22.44
2016-04-01T04:35:27.182Z,22.49
2016-04-01T04:36:27.170Z,22.44
2016-04-01T04:37:27.172Z,22.46
2016-04-01T04:38:27.190Z,22.45
2016-04-01T04:39:27.209Z,22.42
2016-04-01T04:40:27.211Z,22.46
2016-04-01T04:41:27.214Z,22.41
2016-04-01T04:42:27.217Z,22.41
2016-04-01T04:43:27.236Z,22.44
2016-04-01T04:44:27.239Z,22.42
2016-04-01T04:45:27.241Z,22.44
2016-04-01T04:46:27.259Z,22.46
2016-04-01T04:47:27.246Z,22.42
2016-04-01T04:48:27.280Z,22.38
2016-04-01T04:49:27.283Z,22.51
2016-04-01T04:50:27.269Z,22.42
2016-04-01T04:51:27.288Z,22.48
2016-04-01T04:52:27.291Z,22.42
2016-04-01T04:53:27.293Z,22.44
2016-04-01T04:54:27.296Z,22.41
2016-04-01T04:55:27.315Z,22.48
2016-04-01T04:56:27.317Z,22.39
2016-04-01T04:57:27.321Z,22.44
2016-04-01T04:58:27.354Z,22.39
2016-04-01T04:59:27.325Z,22.52
2016-04-01T05:00:27.344Z,22.42
2016-04-01T05:01:27.362Z,22.51
2016-04-01T05:02:27.348Z,22.41
2016-04-01T05:03:27.383Z,22.44
2016-04-01T05:04:27.401Z,22.45
2016-04-01T05:05:27.373Z,22.42
2016-04-01T05:06:27.390Z,22.46
2016-04-01T05:07:27.409Z,22.44
2016-04-01T05:08:27.427Z,22.49
2016-04-01T05:09:27.430Z,22.42
2016-04-01T05:10:27.433Z,22.44
2016-04-01T05:11:27.451Z,22.44
2016-04-01T05:12:27.438Z,22.44
2016-04-01T05:13:27.457Z,22.49
2016-04-01T05:14:27.444Z,22.44
2016-04-01T05:15:27.461Z,22.42
2016-04-01T05:16:27.450Z,22.45
2016-04-01T05:17:27.467Z,22.44
2016-04-01T05:18:27.485Z,22.42
2016-04-01T05:19:27.488Z,22.39
2016-04-01T05:20:27.491Z,22.41
2016-04-01T05:21:27.510Z,22.46
2016-04-01T05:22:27.513Z,22.42
2016-04-01T05:23:27.499Z,22.45
2016-04-01T05:24:27.518Z,22.48
2016-04-01T05:25:27.521Z,22.48
2016-04-01T05:26:27.508Z,22.44
2016-04-01T05:27:27.541Z,22.41
2016-04-01T05:28:27.528Z,22.48
2016-04-01T05:29:27.546Z,22.44
2016-04-01T05:30:27.549Z,22.41
2016-04-01T05:31:27.552Z,22.41
2016-04-01T05:32:27.554Z,22.44
2016-04-01T05:33:27.573Z,22.46
2016-04-01T05:34:27.576Z,22.42
2016-04-01T05:35:27.593Z,22.44
2016-04-01T05:36:27.612Z,22.39
2016-04-01T05:37:27.599Z,22.49
2016-04-01T05:38:27.618Z,22.44
2016-04-01T05:39:27.605Z,22.45
2016-04-01T05:40:27.639Z,22.49
2016-04-01T05:41:27.641Z,22.45
2016-04-01T05:42:27.629Z,22.42
2016-04-01T05:43:27.647Z,22.41
2016-04-01T05:44:27.650Z,22.41
2016-04-01T05:45:27.683Z,22.45
2016-04-01T05:46:27.655Z,22.42
2016-04-01T05:47:27.658Z,22.39
2016-04-01T05:48:27.692Z,22.48
2016-04-01T05:49:27.694Z,22.48
2016-04-01T05:50:27.712Z,22.44
2016-04-01T05:51:27.715Z,22.44
2016-04-01T05:52:27.702Z,22.49
2016-04-01T05:53:27.705Z,22.46
2016-04-01T05:54:27.708Z,22.45
2016-04-01T05:55:27.710Z,22.46
2016-04-01T05:56:27.729Z,22.42
2016-04-01T05:57:27.747Z,22.39
2016-04-01T05:58:27.749Z,22.48
2016-04-01T05:59:27.752Z,22.46
2016-04-01T06:00:27.755Z,22.46
2016-04-01T06:01:27.757Z,22.44
2016-04-01T06:02:27.792Z,22.39
2016-04-01T06:03:27.778Z,22.44
2016-04-01T06:04:27.781Z,22.41
2016-04-01T06:05:27.799Z,22.42
2016-04-01T06:06:27.786Z,22.41
2016-04-01T06:07:27.696Z,22.42
2016-04-01T06:08:27.827Z,22.33
2016-04-01T06:09:27.846Z,22.41
2016-04-01T06:10:27.849Z,22.39
2016-04-01T06:11:27.852Z,22.45
2016-04-01T06:12:27.869Z,22.46
2016-04-01T06:13:27.857Z,22.46
2016-04-01T06:14:27.875Z,22.48
2016-04-01T06:15:27.863Z,22.41
2016-04-01T06:16:27.880Z,22.48
2016-04-01T06:17:27.868Z,22.48
2016-04-01T06:18:27.885Z,22.45
2016-04-01T06:19:27.888Z,22.45
2016-04-01T06:20:27.907Z,22.39
2016-04-01T06:21:27.909Z,22.45
2016-04-01T06:22:27.942Z,22.42
2016-04-01T06:23:27.929Z,22.45
2016-04-01T06:24:27.933Z,22.42
2016-04-01T06:25:27.951Z,22.39
2016-04-01T06:26:27.937Z,22.48
2016-04-01T06:27:27.940Z,22.46
2016-04-01T06:28:27.959Z,22.46
2016-04-01T06:29:27.962Z,22.42
2016-04-01T06:30:27.980Z,22.48
2016-04-01T06:31:27.983Z,22.46
2016-04-01T06:32:27.986Z,22.41
2016-04-01T06:33:28.004Z,22.48
2016-04-01T06:34:28.007Z,22.45
2016-04-01T06:35:28.009Z,22.44
2016-04-01T06:36:28.012Z,22.39
2016-04-01T06:37:28.031Z,22.44
2016-04-01T06:38:28.033Z,22.48
2016-04-01T06:39:28.036Z,22.52
2016-04-01T06:40:28.039Z,22.38
2016-04-01T06:41:28.041Z,22.45
2016-04-01T06:42:28.060Z,22.45
2016-04-01T06:43:28.062Z,22.44
2016-04-01T06:44:28.065Z,22.44
2016-04-01T06:45:28.083Z,22.41
2016-04-01T06:46:28.085Z,22.48
2016-04-01T06:47:28.104Z,22.42
2016-04-01T06:48:28.107Z,22.45
2016-04-01T06:49:28.110Z,22.41
2016-04-01T06:50:28.128Z,22.44
2016-04-01T06:51:28.146Z,22.42
2016-04-01T06:52:28.118Z,22.48
2016-04-01T06:53:28.152Z,22.46
2016-04-01T06:54:28.138Z,22.45
2016-04-01T06:55:28.141Z,22.42
2016-04-01T06:56:28.144Z,22.38
2016-04-01T06:57:28.146Z,22.41
2016-04-01T06:58:28.165Z,22.39
2016-04-01T06:59:28.183Z,22.41
2016-04-01T07:00:28.186Z,22.42
2016-04-01T07:01:28.173Z,22.39
2016-04-01T07:02:28.207Z,22.52
2016-04-01T07:03:28.209Z,22.45
2016-04-01T07:04:28.212Z,22.48
2016-04-01T07:05:28.200Z,22.41
2016-04-01T07:06:28.203Z,22.44
2016-04-01T07:07:28.220Z,22.41
2016-04-01T07:08:28.254Z,22.45
2016-04-01T07:09:28.241Z,22.41
2016-04-01T07:10:28.244Z,22.33
2016-04-01T07:11:28.247Z,22.36
2016-04-01T07:12:28.266Z,22.45
2016-04-01T07:13:28.268Z,22.45
2016-04-01T07:14:28.302Z,22.45
2016-04-01T07:15:28.288Z,22.46
2016-04-01T07:16:28.276Z,22.42
2016-04-01T07:17:28.310Z,22.46
2016-04-01T07:18:28.313Z,22.49
2016-04-01T07:19:28.316Z,22.38
2016-04-01T07:20:28.334Z,22.42
2016-04-01T07:21:28.336Z,22.45
2016-04-01T07:22:28.323Z,22.44
2016-04-01T07:23:28.341Z,22.46
2016-04-01T07:24:28.345Z,22.51
2016-04-01T07:25:28.362Z,22.51
2016-04-01T07:26:28.381Z,22.51
2016-04-01T07:27:28.384Z,22.57
2016-04-01T07:28:28.371Z,22.59
2016-04-01T07:29:28.389Z,22.57
2016-04-01T07:30:28.393Z,22.59
2016-04-01T07:31:28.395Z,22.63
2016-04-01T07:32:28.397Z,22.59
2016-04-01T07:33:28.416Z,22.55
2016-04-01T07:34:28.418Z,22.55
2016-04-01T07:35:28.437Z,22.69
2016-04-01T07:36:28.440Z,22.69
2016-04-01T07:37:28.443Z,22.64
2016-04-01T07:38:28.445Z,22.67
2016-04-01T07:39:28.448Z,22.64
2016-04-01T07:40:28.482Z,22.6
2016-04-01T07:41:28.469Z,22.61
2016-04-01T07:42:28.472Z,22.67
2016-04-01T07:43:28.475Z,22.76
2016-04-01T07:44:28.479Z,22.7
2016-04-01T07:45:28.465Z,22.7
2016-04-01T07:46:28.453Z,22.67
2016-04-01T07:47:28.456Z,22.75
2016-04-01T07:48:28.474Z,22.66
2016-04-01T07:49:28.455Z,22.7
2016-04-01T07:50:28.452Z,22.76
2016-04-01T07:51:28.434Z,22.78
2016-04-01T07:52:28.447Z,22.73
2016-04-01T07:53:28.445Z,22.76
2016-04-01T07:54:28.460Z,22.75
2016-04-01T07:55:28.461Z,22.75
2016-04-01T07:56:28.509Z,22.71
2016-04-01T07:57:28.479Z,22.76
2016-04-01T07:58:28.495Z,22.63
2016-04-01T07:59:28.497Z,22.71
2016-04-01T08:00:28.499Z,22.73
2016-04-01T08:01:28.501Z,22.73
2016-04-01T08:02:28.503Z,22.81
2016-04-01T08:03:28.521Z,22.76
2016-04-01T08:04:28.539Z,22.7
2016-04-01T08:05:28.541Z,22.7
2016-04-01T08:06:28.543Z,22.7
2016-04-01T08:07:28.546Z,22.81
2016-04-01T08:08:28.548Z,22.69
2016-04-01T08:09:28.566Z,22.73
2016-04-01T08:10:28.553Z,22.86
2016-04-01T08:11:28.571Z,22.84
2016-04-01T08:12:28.590Z,22.84
2016-04-01T08:13:28.577Z,22.85
2016-04-01T08:14:28.579Z,22.82
2016-04-01T08:15:28.598Z,22.73
2016-04-01T08:16:28.616Z,22.81
2016-04-01T08:17:28.618Z,22.81
2016-04-01T08:18:28.606Z,22.86
2016-04-01T08:19:28.624Z,22.84
2016-04-01T08:20:28.626Z,22.84
2016-04-01T08:21:28.645Z,22.82
2016-04-01T08:22:28.647Z,22.92
2016-04-01T08:23:28.650Z,22.88
2016-04-01T08:24:28.653Z,22.91
2016-04-01T08:25:28.672Z,22.88
2016-04-01T08:26:27.939Z,22.92
2016-04-01T08:27:28.676Z,22.94
2016-04-01T08:28:28.679Z,22.94
2016-04-01T08:29:28.683Z,22.92
2016-04-01T08:30:28.700Z,22.91
2016-04-01T08:31:28.719Z,22.94
2016-04-01T08:32:28.722Z,22.91
2016-04-01T08:33:28.724Z,22.97
2016-04-01T08:34:28.727Z,23
2016-04-01T08:35:28.589Z,23
2016-04-01T08:36:28.748Z,23.04
2016-04-01T08:37:28.766Z,23.07
2016-04-01T08:38:28.754Z,23.04
2016-04-01T08:39:28.771Z,23.1
2016-04-01T08:40:28.774Z,23.09
2016-04-01T08:41:28.793Z,23.03
2016-04-01T08:42:28.795Z,23.04
2016-04-01T08:43:28.798Z,23.06
2016-04-01T08:44:28.816Z,23.06
2016-04-01T08:45:28.819Z,23.12
2016-04-01T08:46:28.821Z,23.16
2016-04-01T08:47:28.824Z,23.15
2016-04-01T08:48:28.843Z,23.1
2016-04-01T08:49:28.689Z,23.16
2016-04-01T08:50:28.848Z,23.18
2016-04-01T08:51:28.867Z,23.09
2016-04-01T08:52:28.885Z,23.09
2016-04-01T08:53:28.872Z,23.14
2016-04-01T08:54:28.890Z,23.09
2016-04-01T08:55:28.893Z,23.14
2016-04-01T08:56:28.895Z,23.12
2016-04-01T08:57:28.914Z,23.15
2016-04-01T08:58:28.916Z,23.19
2016-04-01T08:59:28.919Z,23.14
2016-04-01T09:00:28.922Z,23.24
2016-04-01T09:01:28.940Z,23.25
2016-04-01T09:02:28.943Z,23.22
2016-04-01T09:03:28.211Z,23.25
2016-04-01T09:04:28.948Z,23.22
2016-04-01T09:05:28.966Z,23.21
2016-04-01T09:06:28.969Z,23.29
2016-04-01T09:07:28.988Z,23.28
2016-04-01T09:08:29.005Z,23.19
2016-04-01T09:09:29.008Z,23.25
2016-04-01T09:10:29.011Z,23.25
2016-04-01T09:11:29.013Z,23.28
2016-04-01T09:12:29.016Z,23.16
2016-04-01T09:13:29.035Z,23.25
2016-04-01T09:14:29.037Z,23.14
2016-04-01T09:15:29.024Z,23.24
2016-04-01T09:16:29.043Z,23.18
2016-04-01T09:17:29.062Z,23.21
2016-04-01T09:18:29.064Z,23.26
2016-04-01T09:19:29.114Z,23.29
2016-04-01T09:20:29.085Z,23.29
2016-04-01T09:21:29.087Z,23.26
2016-04-01T09:22:29.106Z,23.26
2016-04-01T09:23:29.124Z,23.28
2016-04-01T09:24:29.111Z,23.34
2016-04-01T09:25:29.114Z,23.28
2016-04-01T09:26:29.116Z,23.34
2016-04-01T09:27:29.135Z,23.32
2016-04-01T09:28:29.138Z,23.34
2016-04-01T09:29:29.140Z,23.29
2016-04-01T09:30:29.158Z,23.32
2016-04-01T09:31:29.146Z,23.37
2016-04-01T09:32:29.164Z,23.35
2016-04-01T09:33:29.183Z,23.45
2016-04-01T09:34:29.186Z,23.4
2016-04-01T09:35:29.219Z,23.38
2016-04-01T09:36:29.222Z,23.37
2016-04-01T09:37:29.209Z,23.37
2016-04-01T09:38:29.227Z,23.38
2016-04-01T09:39:29.230Z,23.4
2016-04-01T09:40:29.232Z,23.37
2016-04-01T09:41:29.235Z,23.4
2016-04-01T09:42:29.254Z,23.34
2016-04-01T09:43:29.257Z,23.35
2016-04-01T09:44:29.259Z,23.44
2016-04-01T09:45:29.277Z,23.34
2016-04-01T09:46:29.280Z,23.41
2016-04-01T09:47:29.299Z,23.4
2016-04-01T09:48:29.302Z,23.35
2016-04-01T09:49:29.304Z,23.4
2016-04-01T09:50:29.323Z,23.4
2016-04-01T09:51:29.325Z,23.41
2016-04-01T09:52:29.343Z,23.52
2016-04-01T09:53:29.330Z,23.56
2016-04-01T09:54:29.333Z,23.5
2016-04-01T09:55:29.351Z,23.52
2016-04-01T09:56:29.354Z,23.44
2016-04-01T09:57:29.356Z,23.42
2016-04-01T09:58:29.375Z,23.44
2016-04-01T09:59:29.393Z,23.45
2016-04-01T10:00:29.395Z,23.42
2016-04-01T10:01:29.383Z,23.56
2016-04-01T10:02:29.400Z,23.53
2016-04-01T10:03:29.403Z,23.38
2016-04-01T10:04:29.422Z,23.53
2016-04-01T10:05:29.424Z,23.52
2016-04-01T10:06:29.443Z,23.47
2016-04-01T10:07:29.336Z,23.55
2016-04-01T10:08:29.449Z,23.57
2016-04-01T10:09:29.452Z,23.5
2016-04-01T10:10:29.455Z,23.56
2016-04-01T10:11:29.457Z,23.52
2016-04-01T10:12:29.475Z,23.47
2016-04-01T10:13:29.493Z,23.48
2016-04-01T10:14:29.512Z,23.5
2016-04-01T10:15:29.514Z,23.52
2016-04-01T10:16:29.517Z,23.48
2016-04-01T10:17:29.520Z,23.47
2016-04-01T10:18:29.523Z,23.47
2016-04-01T10:19:29.541Z,23.5
2016-04-01T10:20:29.559Z,23.44
2016-04-01T10:21:29.562Z,23.53
2016-04-01T10:22:29.548Z,23.5
2016-04-01T10:23:29.567Z,23.5
2016-04-01T10:24:29.585Z,23.52
2016-04-01T10:25:29.587Z,23.5
2016-04-01T10:26:29.590Z,23.42
2016-04-01T10:27:29.592Z,23.41
2016-04-01T10:28:29.596Z,23.37
2016-04-01T10:29:29.598Z,23.42
2016-04-01T10:30:29.633Z,23.37
2016-04-01T10:31:29.619Z,23.29
2016-04-01T10:32:29.669Z,23.16
2016-04-01T10:33:29.656Z,23.1
2016-04-01T10:34:29.659Z,23.07
2016-04-01T10:35:29.662Z,23.09
2016-04-01T10:36:29.665Z,23.01
2016-04-01T10:37:29.667Z,23.04
2016-04-01T10:38:29.670Z,22.86
2016-04-01T10:39:29.672Z,22.84
2016-04-01T10:40:29.675Z,22.78
2016-04-01T10:41:29.693Z,22.69
2016-04-01T10:42:29.696Z,22.79
2016-04-01T10:43:29.699Z,22.85
2016-04-01T10:44:29.702Z,22.85
2016-04-01T10:45:29.705Z,22.89
2016-04-01T10:46:29.723Z,22.91
2016-04-01T10:47:29.710Z,22.92
2016-04-01T10:48:29.728Z,22.89
2016-04-01T10:49:29.731Z,22.99
2016-04-01T10:50:29.733Z,22.96
2016-04-01T10:51:29.751Z,22.89
2016-04-01T10:52:29.754Z,22.99
2016-04-01T10:53:29.757Z,22.91
2016-04-01T10:54:29.776Z,22.94
2016-04-01T10:55:29.637Z,23
2016-04-01T10:56:29.968Z,23.12
2016-04-01T10:57:29.798Z,23.04
2016-04-01T10:58:29.801Z,23.06
2016-04-01T10:59:29.820Z,23.06
2016-04-01T11:00:29.823Z,23.07
2016-04-01T11:01:29.825Z,23.07
2016-04-01T11:02:29.844Z,23.07
2016-04-01T11:03:29.847Z,23.07
2016-04-01T11:04:29.849Z,23.03
2016-04-01T11:05:29.852Z,23.1
2016-04-01T11:06:29.854Z,23.1
2016-04-01T11:07:29.866Z,23.07
2016-04-01T11:08:29.869Z,23.12
2016-04-01T11:09:29.887Z,23.12
2016-04-01T11:10:29.890Z,23.15
2016-04-01T11:11:29.908Z,23.14
2016-04-01T11:12:29.911Z,23.14
2016-04-01T11:13:29.913Z,23.15
2016-04-01T11:14:29.916Z,23.14
2016-04-01T11:15:29.919Z,23.1
2016-04-01T11:16:29.937Z,23.1
2016-04-01T11:17:29.940Z,23.15
2016-04-01T11:18:29.942Z,23.09
2016-04-01T11:19:29.945Z,23.04
2016-04-01T11:20:29.947Z,23.09
2016-04-01T11:21:29.982Z,23.12
2016-04-01T11:22:29.968Z,23.16
2016-04-01T11:23:29.987Z,23.16
2016-04-01T11:24:29.990Z,23.15
2016-04-01T11:25:29.993Z,23.18
2016-04-01T11:26:30.011Z,23.24
2016-04-01T11:27:30.013Z,23.34
2016-04-01T11:28:30.016Z,23.38
2016-04-01T11:29:30.034Z,23.44
2016-04-01T11:30:30.021Z,23.44
2016-04-01T11:31:30.039Z,23.4
2016-04-01T11:32:30.058Z,23.5
2016-04-01T11:33:30.061Z,23.47
2016-04-01T11:34:30.079Z,23.5
2016-04-01T11:35:30.082Z,23.41
2016-04-01T11:36:30.069Z,23.5
2016-04-01T11:37:30.103Z,23.5
2016-04-01T11:38:30.089Z,23.56
2016-04-01T11:39:30.108Z,23.42
2016-04-01T11:40:30.126Z,23.34
2016-04-01T11:41:30.145Z,23.37
2016-04-01T11:42:30.117Z,23.4
2016-04-01T11:43:30.134Z,23.35
2016-04-01T11:44:30.137Z,23.44
2016-04-01T11:45:30.140Z,23.29
2016-04-01T11:46:30.189Z,23.4
2016-04-01T11:47:30.020Z,23.32
2016-04-01T11:48:30.179Z,23.37
2016-04-01T11:49:30.183Z,23.52
2016-04-01T11:50:30.200Z,23.57
2016-04-01T11:51:30.235Z,23.66
2016-04-01T11:52:30.222Z,23.6
2016-04-01T11:53:30.208Z,23.7
2016-04-01T11:54:30.227Z,23.59
2016-04-01T11:55:30.229Z,23.56
2016-04-01T11:56:30.232Z,23.52
2016-04-01T11:57:30.234Z,23.5
2016-04-01T11:58:30.268Z,23.48
2016-04-01T11:59:30.271Z,23.5
2016-04-01T12:00:30.274Z,23.55
2016-04-01T12:01:30.262Z,23.59
2016-04-01T12:02:30.264Z,23.56
2016-04-01T12:03:30.298Z,23.74
2016-04-01T12:04:30.300Z,23.89
2016-04-01T12:05:30.318Z,23.97
2016-04-01T12:06:30.337Z,24.03
2016-04-01T12:07:30.324Z,23.99
2016-04-01T12:08:30.343Z,23.96
2016-04-01T12:09:30.345Z,23.82
2016-04-01T12:10:30.348Z,24
2016-04-01T12:11:30.350Z,23.99
2016-04-01T12:12:30.353Z,24.12
2016-04-01T12:13:30.355Z,24.07
2016-04-01T12:14:30.374Z,23.85
2016-04-01T12:15:30.377Z,23.74
2016-04-01T12:16:30.380Z,23.89
2016-04-01T12:17:30.414Z,23.78
2016-04-01T12:18:30.417Z,23.71
2016-04-01T12:19:30.419Z,23.74
2016-04-01T12:20:30.438Z,23.66
2016-04-01T12:21:31.440Z,23.6
2016-04-01T12:22:30.443Z,23.67
2016-04-01T12:23:30.429Z,23.62
2016-04-01T12:24:30.463Z,23.67
2016-04-01T12:25:30.466Z,23.66
2016-04-01T12:26:30.453Z,23.67
2016-04-01T12:27:30.472Z,23.71
2016-04-01T12:28:30.474Z,23.67
2016-04-01T12:29:30.852Z,23.56
2016-04-01T12:30:30.495Z,23.55
2016-04-01T12:31:30.498Z,23.59
2016-04-01T12:32:30.516Z,23.59
2016-04-01T12:33:30.551Z,23.6
2016-04-01T12:34:30.554Z,23.56
2016-04-01T12:35:30.540Z,23.66
2016-04-01T12:36:30.543Z,23.63
2016-04-01T12:37:30.545Z,23.55
2016-04-01T12:38:30.548Z,23.64
2016-04-01T12:39:30.567Z,23.64
2016-04-01T12:40:30.569Z,23.62
2016-04-01T12:41:30.572Z,23.79
2016-04-01T12:42:30.589Z,23.82
2016-04-01T12:43:30.609Z,23.79
2016-04-01T12:44:30.611Z,23.71
2016-04-01T12:45:30.630Z,23.66
2016-04-01T12:46:30.616Z,23.71
2016-04-01T12:47:30.635Z,23.64
2016-04-01T12:48:30.638Z,23.57
2016-04-01T12:49:30.671Z,23.63
2016-04-01T12:50:30.658Z,23.63
2016-04-01T12:51:30.707Z,23.64
2016-04-01T12:52:30.663Z,23.59
2016-04-01T12:53:30.682Z,23.7
2016-04-01T12:54:30.669Z,23.63
2016-04-01T12:55:30.672Z,23.71